sensor_id;sensor_type;location;lat;lon;timestamp;P1;durP1;ratioP1;P2;durP2;ratioP2
68455;SDS011;55437;55.046;38.838;2023-04-03T00:00:50;12.43;;;5.82;;
68455;SDS011;55437;55.046;38.838;2023-04-03T00:09:55;15.95;;;7.22;;
68455;SDS011;55437;55.046;38.838;2023-04-03T00:13:11;14.98;;;7.07;;
68455;SDS011;55437;55.046;38.838;2023-04-03T00:15:37;14.82;;;6.68;;
68455;SDS011;55437;55.046;38.838;2023-04-03T00:18:04;15.35;;;6.82;;
68455;SDS011;55437;55.046;38.838;2023-04-03T00:20:30;17.70;;;7.20;;
68455;SDS011;55437;55.046;38.838;2023-04-03T00:22:56;16.60;;;7.13;;
68455;SDS011;55437;55.046;38.838;2023-04-03T00:25:25;11.75;;;5.45;;
68455;SDS011;55437;55.046;38.838;2023-04-03T00:27:54;14.93;;;6.53;;
68455;SDS011;55437;55.046;38.838;2023-04-03T00:30:20;14.00;;;6.28;;
68455;SDS011;55437;55.046;38.838;2023-04-03T00:35:40;12.13;;;6.03;;
68455;SDS011;55437;55.046;38.838;2023-04-03T00:38:07;12.70;;;8.02;;
68455;SDS011;55437;55.046;38.838;2023-04-03T00:40:38;18.77;;;7.85;;
68455;SDS011;55437;55.046;38.838;2023-04-03T00:43:13;19.17;;;7.35;;
68455;SDS011;55437;55.046;38.838;2023-04-03T00:45:47;12.60;;;6.97;;
68455;SDS011;55437;55.046;38.838;2023-04-03T00:48:49;13.25;;;7.35;;
68455;SDS011;55437;55.046;38.838;2023-04-03T00:51:17;14.30;;;6.30;;
68455;SDS011;55437;55.046;38.838;2023-04-03T00:53:53;12.90;;;7.93;;
68455;SDS011;55437;55.046;38.838;2023-04-03T00:56:27;14.20;;;6.03;;
68455;SDS011;55437;55.046;38.838;2023-04-03T00:58:59;13.85;;;6.05;;
68455;SDS011;55437;55.046;38.838;2023-04-03T01:01:38;14.82;;;6.43;;
68455;SDS011;55437;55.046;38.838;2023-04-03T01:04:05;13.00;;;5.70;;
68455;SDS011;55437;55.046;38.838;2023-04-03T01:06:32;10.93;;;5.78;;
68455;SDS011;55437;55.046;38.838;2023-04-03T01:09:06;14.57;;;6.45;;
68455;SDS011;55437;55.046;38.838;2023-04-03T01:12:18;13.50;;;5.82;;
68455;SDS011;55437;55.046;38.838;2023-04-03T01:14:52;14.68;;;6.47;;
68455;SDS011;55437;55.046;38.838;2023-04-03T01:23:09;13.95;;;7.45;;
68455;SDS011;55437;55.046;38.838;2023-04-03T01:25:48;12.30;;;7.20;;
68455;SDS011;55437;55.046;38.838;2023-04-03T01:28:21;15.07;;;6.10;;
68455;SDS011;55437;55.046;38.838;2023-04-03T01:33:37;13.23;;;5.95;;
68455;SDS011;55437;55.046;38.838;2023-04-03T01:36:03;14.00;;;7.30;;
68455;SDS011;55437;55.046;38.838;2023-04-03T01:38:31;15.35;;;7.05;;
68455;SDS011;55437;55.046;38.838;2023-04-03T01:40:57;13.20;;;6.00;;
68455;SDS011;55437;55.046;38.838;2023-04-03T01:43:26;14.95;;;6.03;;
68455;SDS011;55437;55.046;38.838;2023-04-03T01:45:52;13.38;;;7.00;;
68455;SDS011;55437;55.046;38.838;2023-04-03T01:48:20;14.13;;;6.80;;
68455;SDS011;55437;55.046;38.838;2023-04-03T01:50:46;12.15;;;6.03;;
68455;SDS011;55437;55.046;38.838;2023-04-03T01:53:12;11.85;;;6.28;;
68455;SDS011;55437;55.046;38.838;2023-04-03T01:55:41;13.45;;;6.15;;
68455;SDS011;55437;55.046;38.838;2023-04-03T01:58:07;16.63;;;6.47;;
68455;SDS011;55437;55.046;38.838;2023-04-03T02:03:25;14.18;;;6.43;;
68455;SDS011;55437;55.046;38.838;2023-04-03T02:05:54;16.25;;;6.25;;
68455;SDS011;55437;55.046;38.838;2023-04-03T02:08:20;18.17;;;7.53;;
68455;SDS011;55437;55.046;38.838;2023-04-03T02:10:47;15.70;;;7.68;;
68455;SDS011;55437;55.046;38.838;2023-04-03T02:13:15;15.55;;;6.68;;
68455;SDS011;55437;55.046;38.838;2023-04-03T02:15:41;14.95;;;7.97;;
68455;SDS011;55437;55.046;38.838;2023-04-03T02:18:33;13.77;;;6.80;;
68455;SDS011;55437;55.046;38.838;2023-04-03T02:21:24;13.43;;;6.38;;
68455;SDS011;55437;55.046;38.838;2023-04-03T02:23:50;11.68;;;6.18;;
68455;SDS011;55437;55.046;38.838;2023-04-03T02:26:18;13.30;;;6.32;;
68455;SDS011;55437;55.046;38.838;2023-04-03T02:28:45;13.15;;;6.28;;
68455;SDS011;55437;55.046;38.838;2023-04-03T02:31:37;17.10;;;6.53;;
68455;SDS011;55437;55.046;38.838;2023-04-03T02:34:30;16.30;;;6.82;;
68455;SDS011;55437;55.046;38.838;2023-04-03T02:39:50;15.35;;;6.63;;
68455;SDS011;55437;55.046;38.838;2023-04-03T02:42:16;13.45;;;6.93;;
68455;SDS011;55437;55.046;38.838;2023-04-03T02:44:42;16.17;;;6.25;;
68455;SDS011;55437;55.046;38.838;2023-04-03T02:47:09;15.55;;;7.13;;
68455;SDS011;55437;55.046;38.838;2023-04-03T02:49:37;16.77;;;6.25;;
68455;SDS011;55437;55.046;38.838;2023-04-03T02:52:05;14.02;;;7.65;;
68455;SDS011;55437;55.046;38.838;2023-04-03T02:54:31;18.17;;;7.82;;
68455;SDS011;55437;55.046;38.838;2023-04-03T02:57:01;15.82;;;6.97;;
68455;SDS011;55437;55.046;38.838;2023-04-03T02:59:27;13.02;;;6.60;;
68455;SDS011;55437;55.046;38.838;2023-04-03T03:01:53;16.95;;;7.55;;
68455;SDS011;55437;55.046;38.838;2023-04-03T03:04:20;15.27;;;7.00;;
68455;SDS011;55437;55.046;38.838;2023-04-03T03:06:47;12.73;;;6.45;;
68455;SDS011;55437;55.046;38.838;2023-04-03T03:09:13;14.65;;;6.72;;
68455;SDS011;55437;55.046;38.838;2023-04-03T03:11:44;16.20;;;7.72;;
68455;SDS011;55437;55.046;38.838;2023-04-03T03:14:10;17.05;;;7.82;;
68455;SDS011;55437;55.046;38.838;2023-04-03T03:16:37;16.35;;;7.65;;
68455;SDS011;55437;55.046;38.838;2023-04-03T03:19:03;15.05;;;6.97;;
68455;SDS011;55437;55.046;38.838;2023-04-03T03:21:33;16.10;;;7.50;;
68455;SDS011;55437;55.046;38.838;2023-04-03T03:24:01;17.17;;;6.47;;
68455;SDS011;55437;55.046;38.838;2023-04-03T03:29:21;14.48;;;7.25;;
68455;SDS011;55437;55.046;38.838;2023-04-03T03:31:47;17.63;;;8.77;;
68455;SDS011;55437;55.046;38.838;2023-04-03T03:34:13;15.68;;;7.82;;
68455;SDS011;55437;55.046;38.838;2023-04-03T03:36:39;15.07;;;7.03;;
68455;SDS011;55437;55.046;38.838;2023-04-03T03:41:58;21.52;;;9.82;;
68455;SDS011;55437;55.046;38.838;2023-04-03T03:44:25;16.75;;;7.80;;
68455;SDS011;55437;55.046;38.838;2023-04-03T03:47:16;14.73;;;9.18;;
68455;SDS011;55437;55.046;38.838;2023-04-03T03:49:44;17.38;;;7.75;;
68455;SDS011;55437;55.046;38.838;2023-04-03T03:52:35;20.80;;;8.27;;
68455;SDS011;55437;55.046;38.838;2023-04-03T03:55:01;17.17;;;7.60;;
68455;SDS011;55437;55.046;38.838;2023-04-03T03:57:28;16.00;;;7.80;;
68455;SDS011;55437;55.046;38.838;2023-04-03T03:59:54;15.27;;;8.02;;
68455;SDS011;55437;55.046;38.838;2023-04-03T04:02:20;16.85;;;7.72;;
68455;SDS011;55437;55.046;38.838;2023-04-03T04:04:46;13.65;;;6.95;;
68455;SDS011;55437;55.046;38.838;2023-04-03T04:07:13;15.13;;;8.23;;
68455;SDS011;55437;55.046;38.838;2023-04-03T04:09:39;13.77;;;7.10;;
68455;SDS011;55437;55.046;38.838;2023-04-03T04:12:08;19.60;;;8.13;;
68455;SDS011;55437;55.046;38.838;2023-04-03T04:14:39;15.98;;;7.70;;
68455;SDS011;55437;55.046;38.838;2023-04-03T04:17:37;19.70;;;7.43;;
68455;SDS011;55437;55.046;38.838;2023-04-03T04:20:07;15.55;;;7.78;;
68455;SDS011;55437;55.046;38.838;2023-04-03T04:22:35;14.55;;;7.53;;
68455;SDS011;55437;55.046;38.838;2023-04-03T04:25:01;20.40;;;8.40;;
68455;SDS011;55437;55.046;38.838;2023-04-03T04:27:28;19.38;;;8.13;;
68455;SDS011;55437;55.046;38.838;2023-04-03T04:29:55;21.52;;;8.82;;
68455;SDS011;55437;55.046;38.838;2023-04-03T04:32:21;20.88;;;9.32;;
68455;SDS011;55437;55.046;38.838;2023-04-03T04:34:50;20.27;;;8.48;;
68455;SDS011;55437;55.046;38.838;2023-04-03T04:37:16;23.52;;;8.57;;
68455;SDS011;55437;55.046;38.838;2023-04-03T04:39:46;17.50;;;7.55;;
68455;SDS011;55437;55.046;38.838;2023-04-03T04:42:13;16.48;;;7.75;;
68455;SDS011;55437;55.046;38.838;2023-04-03T04:45:29;14.77;;;6.60;;
68455;SDS011;55437;55.046;38.838;2023-04-03T04:47:58;19.92;;;8.45;;
68455;SDS011;55437;55.046;38.838;2023-04-03T04:50:25;18.52;;;7.13;;
68455;SDS011;55437;55.046;38.838;2023-04-03T04:52:52;19.27;;;6.78;;
68455;SDS011;55437;55.046;38.838;2023-04-03T04:55:19;20.90;;;8.13;;
68455;SDS011;55437;55.046;38.838;2023-04-03T04:57:47;16.25;;;7.70;;
68455;SDS011;55437;55.046;38.838;2023-04-03T05:00:14;18.90;;;6.95;;
68455;SDS011;55437;55.046;38.838;2023-04-03T05:02:41;13.90;;;6.70;;
68455;SDS011;55437;55.046;38.838;2023-04-03T05:05:07;17.98;;;7.22;;
68455;SDS011;55437;55.046;38.838;2023-04-03T05:07:38;14.68;;;7.07;;
68455;SDS011;55437;55.046;38.838;2023-04-03T05:10:05;15.60;;;6.95;;
68455;SDS011;55437;55.046;38.838;2023-04-03T05:12:34;16.67;;;7.53;;
68455;SDS011;55437;55.046;38.838;2023-04-03T05:18:01;14.30;;;6.88;;
68455;SDS011;55437;55.046;38.838;2023-04-03T05:20:32;15.32;;;7.72;;
68455;SDS011;55437;55.046;38.838;2023-04-03T05:22:59;15.85;;;7.30;;
68455;SDS011;55437;55.046;38.838;2023-04-03T05:25:52;13.52;;;7.25;;
68455;SDS011;55437;55.046;38.838;2023-04-03T05:28:24;15.48;;;6.78;;
68455;SDS011;55437;55.046;38.838;2023-04-03T05:30:53;14.23;;;7.32;;
68455;SDS011;55437;55.046;38.838;2023-04-03T05:33:32;12.73;;;6.68;;
68455;SDS011;55437;55.046;38.838;2023-04-03T05:36:03;14.70;;;6.68;;
68455;SDS011;55437;55.046;38.838;2023-04-03T05:38:55;15.48;;;6.35;;
68455;SDS011;55437;55.046;38.838;2023-04-03T05:41:23;13.73;;;6.07;;
68455;SDS011;55437;55.046;38.838;2023-04-03T05:43:52;14.82;;;6.50;;
68455;SDS011;55437;55.046;38.838;2023-04-03T05:49:16;13.40;;;6.20;;
68455;SDS011;55437;55.046;38.838;2023-04-03T05:51:43;14.10;;;6.28;;
68455;SDS011;55437;55.046;38.838;2023-04-03T05:54:19;12.02;;;5.90;;
68455;SDS011;55437;55.046;38.838;2023-04-03T05:56:54;12.73;;;6.53;;
68455;SDS011;55437;55.046;38.838;2023-04-03T05:59:24;13.02;;;7.00;;
68455;SDS011;55437;55.046;38.838;2023-04-03T06:01:52;16.10;;;6.40;;
68455;SDS011;55437;55.046;38.838;2023-04-03T06:04:46;15.40;;;6.13;;
68455;SDS011;55437;55.046;38.838;2023-04-03T06:07:40;15.77;;;6.35;;
68455;SDS011;55437;55.046;38.838;2023-04-03T06:10:25;12.15;;;6.32;;
68455;SDS011;55437;55.046;38.838;2023-04-03T06:12:51;13.10;;;6.35;;
68455;SDS011;55437;55.046;38.838;2023-04-03T06:15:18;13.02;;;6.28;;
68455;SDS011;55437;55.046;38.838;2023-04-03T06:17:45;18.15;;;6.53;;
68455;SDS011;55437;55.046;38.838;2023-04-03T06:20:36;12.35;;;6.00;;
68455;SDS011;55437;55.046;38.838;2023-04-03T06:23:04;13.77;;;5.97;;
68455;SDS011;55437;55.046;38.838;2023-04-03T06:25:32;14.88;;;6.00;;
68455;SDS011;55437;55.046;38.838;2023-04-03T06:27:59;12.27;;;5.72;;
68455;SDS011;55437;55.046;38.838;2023-04-03T06:30:25;11.73;;;6.22;;
68455;SDS011;55437;55.046;38.838;2023-04-03T06:32:51;14.68;;;6.00;;
68455;SDS011;55437;55.046;38.838;2023-04-03T06:35:18;12.32;;;5.43;;
68455;SDS011;55437;55.046;38.838;2023-04-03T06:37:44;12.15;;;6.18;;
68455;SDS011;55437;55.046;38.838;2023-04-03T06:40:15;13.40;;;5.68;;
68455;SDS011;55437;55.046;38.838;2023-04-03T06:42:46;13.93;;;5.95;;
68455;SDS011;55437;55.046;38.838;2023-04-03T06:45:13;14.13;;;5.68;;
68455;SDS011;55437;55.046;38.838;2023-04-03T06:47:42;12.48;;;6.70;;
68455;SDS011;55437;55.046;38.838;2023-04-03T06:50:16;15.73;;;5.97;;
68455;SDS011;55437;55.046;38.838;2023-04-03T06:52:48;11.45;;;5.78;;
68455;SDS011;55437;55.046;38.838;2023-04-03T06:55:14;12.63;;;5.97;;
68455;SDS011;55437;55.046;38.838;2023-04-03T06:57:41;14.13;;;6.30;;
68455;SDS011;55437;55.046;38.838;2023-04-03T07:00:07;14.48;;;5.93;;
68455;SDS011;55437;55.046;38.838;2023-04-03T07:02:59;14.20;;;6.93;;
68455;SDS011;55437;55.046;38.838;2023-04-03T07:05:26;13.63;;;5.93;;
68455;SDS011;55437;55.046;38.838;2023-04-03T07:07:52;13.10;;;6.97;;
68455;SDS011;55437;55.046;38.838;2023-04-03T07:10:20;14.73;;;6.43;;
68455;SDS011;55437;55.046;38.838;2023-04-03T07:15:42;12.18;;;5.38;;
68455;SDS011;55437;55.046;38.838;2023-04-03T07:18:12;14.52;;;6.57;;
68455;SDS011;55437;55.046;38.838;2023-04-03T07:21:04;21.17;;;8.38;;
68455;SDS011;55437;55.046;38.838;2023-04-03T07:23:31;21.65;;;9.77;;
68455;SDS011;55437;55.046;38.838;2023-04-03T07:25:57;17.30;;;6.82;;
68455;SDS011;55437;55.046;38.838;2023-04-03T07:28:23;12.23;;;5.95;;
68455;SDS011;55437;55.046;38.838;2023-04-03T07:31:16;11.15;;;5.80;;
68455;SDS011;55437;55.046;38.838;2023-04-03T07:33:43;12.25;;;5.47;;
68455;SDS011;55437;55.046;38.838;2023-04-03T07:36:29;11.15;;;5.35;;
68455;SDS011;55437;55.046;38.838;2023-04-03T07:38:58;11.55;;;5.75;;
68455;SDS011;55437;55.046;38.838;2023-04-03T07:41:24;12.20;;;5.40;;
68455;SDS011;55437;55.046;38.838;2023-04-03T07:43:50;11.75;;;5.90;;
68455;SDS011;55437;55.046;38.838;2023-04-03T07:46:17;10.73;;;5.63;;
68455;SDS011;55437;55.046;38.838;2023-04-03T07:48:43;12.50;;;5.35;;
68455;SDS011;55437;55.046;38.838;2023-04-03T07:51:34;15.73;;;5.82;;
68455;SDS011;55437;55.046;38.838;2023-04-03T07:54:25;11.90;;;5.63;;
68455;SDS011;55437;55.046;38.838;2023-04-03T07:56:57;13.43;;;5.07;;
68455;SDS011;55437;55.046;38.838;2023-04-03T07:59:23;12.77;;;5.60;;
68455;SDS011;55437;55.046;38.838;2023-04-03T08:01:49;12.30;;;5.93;;
68455;SDS011;55437;55.046;38.838;2023-04-03T08:04:15;17.90;;;5.60;;
68455;SDS011;55437;55.046;38.838;2023-04-03T08:07:05;12.85;;;5.72;;
68455;SDS011;55437;55.046;38.838;2023-04-03T08:09:31;11.98;;;4.70;;
68455;SDS011;55437;55.046;38.838;2023-04-03T08:11:58;14.90;;;4.45;;
68455;SDS011;55437;55.046;38.838;2023-04-03T08:14:49;10.63;;;4.57;;
68455;SDS011;55437;55.046;38.838;2023-04-03T08:17:15;11.25;;;5.13;;
68455;SDS011;55437;55.046;38.838;2023-04-03T08:19:41;11.60;;;4.88;;
68455;SDS011;55437;55.046;38.838;2023-04-03T08:22:09;14.40;;;4.70;;
68455;SDS011;55437;55.046;38.838;2023-04-03T08:24:36;11.15;;;4.20;;
68455;SDS011;55437;55.046;38.838;2023-04-03T08:27:02;14.00;;;5.30;;
68455;SDS011;55437;55.046;38.838;2023-04-03T08:29:27;17.38;;;6.15;;
68455;SDS011;55437;55.046;38.838;2023-04-03T08:31:54;12.80;;;6.65;;
68455;SDS011;55437;55.046;38.838;2023-04-03T08:34:20;13.05;;;6.80;;
68455;SDS011;55437;55.046;38.838;2023-04-03T08:39:37;16.60;;;7.03;;
68455;SDS011;55437;55.046;38.838;2023-04-03T08:48:24;22.38;;;7.25;;
68455;SDS011;55437;55.046;38.838;2023-04-03T08:50:58;16.35;;;7.32;;
68455;SDS011;55437;55.046;38.838;2023-04-03T08:53:29;24.58;;;7.50;;
68455;SDS011;55437;55.046;38.838;2023-04-03T08:56:02;22.30;;;8.20;;
68455;SDS011;55437;55.046;38.838;2023-04-03T08:58:36;24.83;;;8.38;;
68455;SDS011;55437;55.046;38.838;2023-04-03T09:04:13;22.27;;;6.93;;
68455;SDS011;55437;55.046;38.838;2023-04-03T09:06:43;14.43;;;6.28;;
68455;SDS011;55437;55.046;38.838;2023-04-03T09:09:37;15.43;;;6.53;;
68455;SDS011;55437;55.046;38.838;2023-04-03T09:12:27;15.73;;;6.32;;
68455;SDS011;55437;55.046;38.838;2023-04-03T09:15:24;15.23;;;6.57;;
68455;SDS011;55437;55.046;38.838;2023-04-03T09:26:51;15.23;;;6.90;;
68455;SDS011;55437;55.046;38.838;2023-04-03T09:29:27;17.75;;;6.60;;
68455;SDS011;55437;55.046;38.838;2023-04-03T09:32:11;20.23;;;7.07;;
68455;SDS011;55437;55.046;38.838;2023-04-03T09:34:52;15.13;;;8.55;;
68455;SDS011;55437;55.046;38.838;2023-04-03T09:37:48;16.52;;;7.75;;
68455;SDS011;55437;55.046;38.838;2023-04-03T09:40:36;13.88;;;6.55;;
68455;SDS011;55437;55.046;38.838;2023-04-03T09:45:43;12.68;;;6.78;;
68455;SDS011;55437;55.046;38.838;2023-04-03T09:48:19;15.18;;;5.82;;
68455;SDS011;55437;55.046;38.838;2023-04-03T10:01:37;9.88;;;4.35;;
68455;SDS011;55437;55.046;38.838;2023-04-03T10:04:14;9.25;;;4.32;;
68455;SDS011;55437;55.046;38.838;2023-04-03T10:06:52;9.70;;;4.40;;
68455;SDS011;55437;55.046;38.838;2023-04-03T10:09:23;10.07;;;4.22;;
68455;SDS011;55437;55.046;38.838;2023-04-03T10:12:06;9.98;;;4.50;;
68455;SDS011;55437;55.046;38.838;2023-04-03T10:14:37;12.43;;;4.45;;
68455;SDS011;55437;55.046;38.838;2023-04-03T10:34:06;9.70;;;3.85;;
68455;SDS011;55437;55.046;38.838;2023-04-03T10:36:40;9.25;;;4.25;;
68455;SDS011;55437;55.046;38.838;2023-04-03T10:47:41;11.60;;;4.00;;
68455;SDS011;55437;55.046;38.838;2023-04-03T10:55:18;8.60;;;4.18;;
68455;SDS011;55437;55.046;38.838;2023-04-03T10:58:09;9.45;;;4.55;;
68455;SDS011;55437;55.046;38.838;2023-04-03T11:00:50;10.15;;;4.72;;
68455;SDS011;55437;55.046;38.838;2023-04-03T11:03:36;9.00;;;4.45;;
68455;SDS011;55437;55.046;38.838;2023-04-03T11:06:07;9.15;;;4.53;;
68455;SDS011;55437;55.046;38.838;2023-04-03T11:08:52;11.30;;;4.80;;
68455;SDS011;55437;55.046;38.838;2023-04-03T11:11:48;9.02;;;4.03;;
68455;SDS011;55437;55.046;38.838;2023-04-03T11:14:26;11.52;;;5.03;;
68455;SDS011;55437;55.046;38.838;2023-04-03T11:22:45;12.68;;;4.32;;
68455;SDS011;55437;55.046;38.838;2023-04-03T11:25:20;10.52;;;4.82;;
68455;SDS011;55437;55.046;38.838;2023-04-03T11:28:14;9.77;;;4.25;;
68455;SDS011;55437;55.046;38.838;2023-04-03T11:36:26;9.38;;;4.75;;
68455;SDS011;55437;55.046;38.838;2023-04-03T11:53:47;8.48;;;3.50;;
68455;SDS011;55437;55.046;38.838;2023-04-03T11:58:17;10.32;;;3.80;;
68455;SDS011;55437;55.046;38.838;2023-04-03T12:08:28;10.82;;;4.35;;
68455;SDS011;55437;55.046;38.838;2023-04-03T12:13:35;9.43;;;3.95;;
68455;SDS011;55437;55.046;38.838;2023-04-03T12:16:27;10.15;;;4.15;;
68455;SDS011;55437;55.046;38.838;2023-04-03T12:22:29;8.65;;;3.03;;
68455;SDS011;55437;55.046;38.838;2023-04-03T12:24:55;11.88;;;4.10;;
68455;SDS011;55437;55.046;38.838;2023-04-03T12:27:25;15.10;;;4.38;;
68455;SDS011;55437;55.046;38.838;2023-04-03T12:30:25;9.88;;;3.63;;
68455;SDS011;55437;55.046;38.838;2023-04-03T12:35:40;8.10;;;3.50;;
68455;SDS011;55437;55.046;38.838;2023-04-03T12:46:26;9.27;;;3.15;;
68455;SDS011;55437;55.046;38.838;2023-04-03T12:48:59;14.30;;;4.35;;
68455;SDS011;55437;55.046;38.838;2023-04-03T12:54:39;8.05;;;3.08;;
68455;SDS011;55437;55.046;38.838;2023-04-03T12:57:08;9.48;;;3.70;;
68455;SDS011;55437;55.046;38.838;2023-04-03T13:03:07;9.75;;;4.57;;
68455;SDS011;55437;55.046;38.838;2023-04-03T13:08:22;7.50;;;2.97;;
68455;SDS011;55437;55.046;38.838;2023-04-03T13:10:53;8.48;;;3.35;;
68455;SDS011;55437;55.046;38.838;2023-04-03T13:14:03;9.88;;;4.13;;
68455;SDS011;55437;55.046;38.838;2023-04-03T13:16:33;9.43;;;3.30;;
68455;SDS011;55437;55.046;38.838;2023-04-03T13:18:59;8.38;;;3.33;;
68455;SDS011;55437;55.046;38.838;2023-04-03T13:21:28;11.48;;;3.10;;
68455;SDS011;55437;55.046;38.838;2023-04-03T13:24:00;9.70;;;3.30;;
68455;SDS011;55437;55.046;38.838;2023-04-03T13:26:35;9.38;;;3.22;;
68455;SDS011;55437;55.046;38.838;2023-04-03T13:29:18;9.95;;;3.60;;
68455;SDS011;55437;55.046;38.838;2023-04-03T13:31:48;11.40;;;2.95;;
68455;SDS011;55437;55.046;38.838;2023-04-03T13:34:45;8.25;;;5.38;;
68455;SDS011;55437;55.046;38.838;2023-04-03T13:37:19;8.40;;;3.17;;
68455;SDS011;55437;55.046;38.838;2023-04-03T13:39:46;11.32;;;3.60;;
68455;SDS011;55437;55.046;38.838;2023-04-03T13:43:00;8.45;;;3.38;;
68455;SDS011;55437;55.046;38.838;2023-04-03T13:45:58;10.73;;;3.33;;
68455;SDS011;55437;55.046;38.838;2023-04-03T13:48:55;7.18;;;3.20;;
68455;SDS011;55437;55.046;38.838;2023-04-03T13:51:28;11.50;;;3.45;;
68455;SDS011;55437;55.046;38.838;2023-04-03T13:53:57;9.73;;;3.53;;
68455;SDS011;55437;55.046;38.838;2023-04-03T13:56:33;8.77;;;3.63;;
68455;SDS011;55437;55.046;38.838;2023-04-03T14:04:26;10.88;;;3.47;;
68455;SDS011;55437;55.046;38.838;2023-04-03T14:06:55;11.45;;;4.25;;
68455;SDS011;55437;55.046;38.838;2023-04-03T14:09:23;11.88;;;4.63;;
68455;SDS011;55437;55.046;38.838;2023-04-03T14:11:59;10.00;;;4.40;;
68455;SDS011;55437;55.046;38.838;2023-04-03T14:14:31;20.33;;;5.15;;
68455;SDS011;55437;55.046;38.838;2023-04-03T14:17:21;22.42;;;5.60;;
68455;SDS011;55437;55.046;38.838;2023-04-03T14:22:20;15.90;;;4.82;;
68455;SDS011;55437;55.046;38.838;2023-04-03T14:25:07;14.82;;;4.57;;
68455;SDS011;55437;55.046;38.838;2023-04-03T14:27:58;19.02;;;4.88;;
68455;SDS011;55437;55.046;38.838;2023-04-03T14:30:27;20.52;;;4.97;;
68455;SDS011;55437;55.046;38.838;2023-04-03T14:33:05;23.52;;;4.80;;
68455;SDS011;55437;55.046;38.838;2023-04-03T14:35:50;20.30;;;4.63;;
68455;SDS011;55437;55.046;38.838;2023-04-03T14:38:23;14.48;;;4.40;;
68455;SDS011;55437;55.046;38.838;2023-04-03T14:40:52;13.75;;;5.28;;
68455;SDS011;55437;55.046;38.838;2023-04-03T14:43:37;13.65;;;4.45;;
68455;SDS011;55437;55.046;38.838;2023-04-03T14:46:04;11.00;;;4.50;;
68455;SDS011;55437;55.046;38.838;2023-04-03T14:48:50;13.13;;;4.50;;
68455;SDS011;55437;55.046;38.838;2023-04-03T14:51:41;23.08;;;7.22;;
68455;SDS011;55437;55.046;38.838;2023-04-03T14:54:12;16.02;;;5.88;;
68455;SDS011;55437;55.046;38.838;2023-04-03T14:57:08;18.40;;;6.22;;
68455;SDS011;55437;55.046;38.838;2023-04-03T15:02:55;17.05;;;5.18;;
68455;SDS011;55437;55.046;38.838;2023-04-03T15:05:21;13.60;;;6.03;;
68455;SDS011;55437;55.046;38.838;2023-04-03T15:13:12;17.23;;;5.28;;
68455;SDS011;55437;55.046;38.838;2023-04-03T15:16:00;12.10;;;5.00;;
68455;SDS011;55437;55.046;38.838;2023-04-03T15:18:28;11.23;;;4.45;;
68455;SDS011;55437;55.046;38.838;2023-04-03T15:21:00;17.20;;;4.80;;
68455;SDS011;55437;55.046;38.838;2023-04-03T15:23:27;17.83;;;4.95;;
68455;SDS011;55437;55.046;38.838;2023-04-03T15:25:56;14.20;;;5.22;;
68455;SDS011;55437;55.046;38.838;2023-04-03T15:28:25;17.95;;;5.75;;
68455;SDS011;55437;55.046;38.838;2023-04-03T15:30:53;15.55;;;4.90;;
68455;SDS011;55437;55.046;38.838;2023-04-03T15:33:22;18.83;;;4.82;;
68455;SDS011;55437;55.046;38.838;2023-04-03T15:35:48;10.98;;;4.88;;
68455;SDS011;55437;55.046;38.838;2023-04-03T15:41:07;9.02;;;4.20;;
68455;SDS011;55437;55.046;38.838;2023-04-03T15:43:34;10.43;;;4.30;;
68455;SDS011;55437;55.046;38.838;2023-04-03T15:46:00;11.55;;;5.47;;
68455;SDS011;55437;55.046;38.838;2023-04-03T15:48:27;10.75;;;4.40;;
68455;SDS011;55437;55.046;38.838;2023-04-03T15:50:54;7.78;;;3.47;;
68455;SDS011;55437;55.046;38.838;2023-04-03T15:53:23;7.50;;;4.07;;
68455;SDS011;55437;55.046;38.838;2023-04-03T15:55:52;12.32;;;3.30;;
68455;SDS011;55437;55.046;38.838;2023-04-03T15:58:19;7.30;;;3.05;;
68455;SDS011;55437;55.046;38.838;2023-04-03T16:00:45;9.05;;;3.55;;
68455;SDS011;55437;55.046;38.838;2023-04-03T16:03:12;10.07;;;3.80;;
68455;SDS011;55437;55.046;38.838;2023-04-03T16:06:06;10.80;;;3.40;;
68455;SDS011;55437;55.046;38.838;2023-04-03T16:08:32;9.25;;;3.83;;
68455;SDS011;55437;55.046;38.838;2023-04-03T16:11:01;15.10;;;5.85;;
68455;SDS011;55437;55.046;38.838;2023-04-03T16:13:28;19.73;;;7.32;;
68455;SDS011;55437;55.046;38.838;2023-04-03T16:15:56;17.30;;;6.38;;
68455;SDS011;55437;55.046;38.838;2023-04-03T16:18:26;15.60;;;5.90;;
68455;SDS011;55437;55.046;38.838;2023-04-03T16:21:12;23.35;;;7.85;;
68455;SDS011;55437;55.046;38.838;2023-04-03T16:23:41;17.65;;;6.63;;
68455;SDS011;55437;55.046;38.838;2023-04-03T16:26:12;16.45;;;5.93;;
68455;SDS011;55437;55.046;38.838;2023-04-03T16:28:39;12.68;;;4.63;;
68455;SDS011;55437;55.046;38.838;2023-04-03T16:31:05;12.07;;;5.10;;
68455;SDS011;55437;55.046;38.838;2023-04-03T16:33:32;10.23;;;4.53;;
68455;SDS011;55437;55.046;38.838;2023-04-03T16:36:03;12.32;;;5.50;;
68455;SDS011;55437;55.046;38.838;2023-04-03T16:38:38;17.27;;;6.53;;
68455;SDS011;55437;55.046;38.838;2023-04-03T16:41:05;14.18;;;5.90;;
68455;SDS011;55437;55.046;38.838;2023-04-03T16:43:33;14.90;;;7.18;;
68455;SDS011;55437;55.046;38.838;2023-04-03T16:46:04;14.95;;;6.50;;
68455;SDS011;55437;55.046;38.838;2023-04-03T16:48:31;13.98;;;6.05;;
68455;SDS011;55437;55.046;38.838;2023-04-03T16:50:57;14.57;;;6.40;;
68455;SDS011;55437;55.046;38.838;2023-04-03T16:53:23;15.75;;;6.05;;
68455;SDS011;55437;55.046;38.838;2023-04-03T16:55:50;14.00;;;5.55;;
68455;SDS011;55437;55.046;38.838;2023-04-03T16:58:34;13.85;;;5.68;;
68455;SDS011;55437;55.046;38.838;2023-04-03T17:01:14;10.95;;;5.47;;
68455;SDS011;55437;55.046;38.838;2023-04-03T17:03:45;11.88;;;5.18;;
68455;SDS011;55437;55.046;38.838;2023-04-03T17:06:17;11.35;;;5.15;;
68455;SDS011;55437;55.046;38.838;2023-04-03T17:11:37;13.85;;;6.38;;
68455;SDS011;55437;55.046;38.838;2023-04-03T17:14:10;14.27;;;5.65;;
68455;SDS011;55437;55.046;38.838;2023-04-03T17:17:04;11.80;;;5.70;;
68455;SDS011;55437;55.046;38.838;2023-04-03T17:19:56;12.98;;;5.60;;
68455;SDS011;55437;55.046;38.838;2023-04-03T17:22:43;12.70;;;6.15;;
68455;SDS011;55437;55.046;38.838;2023-04-03T17:25:10;13.73;;;5.70;;
68455;SDS011;55437;55.046;38.838;2023-04-03T17:30:31;17.20;;;6.60;;
68455;SDS011;55437;55.046;38.838;2023-04-03T17:32:57;16.45;;;6.15;;
68455;SDS011;55437;55.046;38.838;2023-04-03T17:35:23;13.07;;;6.43;;
68455;SDS011;55437;55.046;38.838;2023-04-03T17:37:50;13.77;;;7.32;;
68455;SDS011;55437;55.046;38.838;2023-04-03T17:40:17;16.80;;;7.47;;
68455;SDS011;55437;55.046;38.838;2023-04-03T17:42:43;16.58;;;8.05;;
68455;SDS011;55437;55.046;38.838;2023-04-03T17:48:00;24.42;;;11.45;;
68455;SDS011;55437;55.046;38.838;2023-04-03T17:50:26;28.30;;;12.10;;
68455;SDS011;55437;55.046;38.838;2023-04-03T17:52:53;27.38;;;12.52;;
68455;SDS011;55437;55.046;38.838;2023-04-03T17:55:19;28.85;;;12.73;;
68455;SDS011;55437;55.046;38.838;2023-04-03T17:57:47;25.88;;;12.15;;
68455;SDS011;55437;55.046;38.838;2023-04-03T18:00:13;22.52;;;11.35;;
68455;SDS011;55437;55.046;38.838;2023-04-03T18:02:52;27.63;;;12.63;;
68455;SDS011;55437;55.046;38.838;2023-04-03T18:05:27;32.35;;;13.25;;
68455;SDS011;55437;55.046;38.838;2023-04-03T18:07:57;29.77;;;13.68;;
68455;SDS011;55437;55.046;38.838;2023-04-03T18:10:29;37.28;;;14.00;;